sensor_id;sensor_type;location;lat;lon;timestamp;P1;durP1;ratioP1;P2;durP2;ratioP2
4827;SDS011;2428;48.732;9.148;2022-11-13T00:01:37;3.50;;;3.27;;
4827;SDS011;2428;48.732;9.148;2022-11-13T00:04:02;6.10;;;3.63;;
4827;SDS011;2428;48.732;9.148;2022-11-13T00:06:28;3.67;;;2.90;;
4827;SDS011;2428;48.732;9.148;2022-11-13T00:08:54;2.60;;;2.40;;
4827;SDS011;2428;48.732;9.148;2022-11-13T00:11:19;2.13;;;2.03;;
4827;SDS011;2428;48.732;9.148;2022-11-13T00:13:46;2.90;;;2.60;;
4827;SDS011;2428;48.732;9.148;2022-11-13T00:16:13;5.18;;;3.15;;
4827;SDS011;2428;48.732;9.148;2022-11-13T00:18:43;2.75;;;2.55;;
4827;SDS011;2428;48.732;9.148;2022-11-13T00:21:16;2.75;;;1.98;;
4827;SDS011;2428;48.732;9.148;2022-11-13T00:23:44;2.65;;;2.10;;
4827;SDS011;2428;48.732;9.148;2022-11-13T00:26:11;1.93;;;1.73;;
4827;SDS011;2428;48.732;9.148;2022-11-13T00:28:37;2.58;;;2.42;;
4827;SDS011;2428;48.732;9.148;2022-11-13T00:31:04;2.33;;;2.23;;
4827;SDS011;2428;48.732;9.148;2022-11-13T00:33:30;2.70;;;2.45;;
4827;SDS011;2428;48.732;9.148;2022-11-13T00:36:03;3.40;;;3.20;;
4827;SDS011;2428;48.732;9.148;2022-11-13T00:38:30;2.05;;;1.95;;
4827;SDS011;2428;48.732;9.148;2022-11-13T00:40:56;4.83;;;2.40;;
4827;SDS011;2428;48.732;9.148;2022-11-13T00:43:22;2.65;;;1.60;;
4827;SDS011;2428;48.732;9.148;2022-11-13T00:45:47;1.70;;;1.60;;
4827;SDS011;2428;48.732;9.148;2022-11-13T00:48:13;2.63;;;2.27;;
4827;SDS011;2428;48.732;9.148;2022-11-13T00:50:38;1.10;;;1.10;;
4827;SDS011;2428;48.732;9.148;2022-11-13T00:53:04;2.70;;;2.00;;
4827;SDS011;2428;48.732;9.148;2022-11-13T00:55:30;4.30;;;2.83;;
4827;SDS011;2428;48.732;9.148;2022-11-13T00:57:55;2.60;;;1.60;;
4827;SDS011;2428;48.732;9.148;2022-11-13T01:00:21;2.67;;;2.57;;
4827;SDS011;2428;48.732;9.148;2022-11-13T01:02:47;2.20;;;2.10;;
4827;SDS011;2428;48.732;9.148;2022-11-13T01:05:12;2.87;;;2.67;;
4827;SDS011;2428;48.732;9.148;2022-11-13T01:07:38;2.60;;;2.40;;
4827;SDS011;2428;48.732;9.148;2022-11-13T01:10:04;2.70;;;2.50;;
4827;SDS011;2428;48.732;9.148;2022-11-13T01:12:30;3.65;;;2.80;;
4827;SDS011;2428;48.732;9.148;2022-11-13T01:14:56;3.07;;;2.50;;
4827;SDS011;2428;48.732;9.148;2022-11-13T01:17:21;2.10;;;2.00;;
4827;SDS011;2428;48.732;9.148;2022-11-13T01:19:47;2.03;;;1.93;;
4827;SDS011;2428;48.732;9.148;2022-11-13T01:22:13;2.77;;;2.10;;
4827;SDS011;2428;48.732;9.148;2022-11-13T01:24:38;2.90;;;2.73;;
4827;SDS011;2428;48.732;9.148;2022-11-13T01:27:04;1.77;;;1.67;;
4827;SDS011;2428;48.732;9.148;2022-11-13T01:29:30;2.20;;;2.00;;
4827;SDS011;2428;48.732;9.148;2022-11-13T01:31:57;3.15;;;2.30;;
4827;SDS011;2428;48.732;9.148;2022-11-13T01:34:23;2.77;;;2.30;;
4827;SDS011;2428;48.732;9.148;2022-11-13T01:36:50;1.20;;;1.20;;
4827;SDS011;2428;48.732;9.148;2022-11-13T01:39:16;3.33;;;2.17;;
4827;SDS011;2428;48.732;9.148;2022-11-13T01:41:41;2.20;;;2.10;;
4827;SDS011;2428;48.732;9.148;2022-11-13T01:44:11;1.63;;;1.50;;
4827;SDS011;2428;48.732;9.148;2022-11-13T01:46:43;3.95;;;1.67;;
4827;SDS011;2428;48.732;9.148;2022-11-13T01:51:53;3.10;;;2.03;;
4827;SDS011;2428;48.732;9.148;2022-11-13T01:54:23;1.10;;;1.10;;
4827;SDS011;2428;48.732;9.148;2022-11-13T01:56:51;2.47;;;1.77;;
4827;SDS011;2428;48.732;9.148;2022-11-13T01:59:19;4.00;;;3.75;;
4827;SDS011;2428;48.732;9.148;2022-11-13T02:01:48;2.25;;;1.48;;
4827;SDS011;2428;48.732;9.148;2022-11-13T02:04:14;1.83;;;1.73;;
4827;SDS011;2428;48.732;9.148;2022-11-13T02:06:41;2.00;;;1.53;;
4827;SDS011;2428;48.732;9.148;2022-11-13T02:09:07;1.58;;;1.48;;
4827;SDS011;2428;48.732;9.148;2022-11-13T02:11:34;2.05;;;1.50;;
4827;SDS011;2428;48.732;9.148;2022-11-13T02:14:01;2.45;;;1.63;;
4827;SDS011;2428;48.732;9.148;2022-11-13T02:16:29;1.92;;;1.83;;
4827;SDS011;2428;48.732;9.148;2022-11-13T02:18:57;2.70;;;2.55;;
4827;SDS011;2428;48.732;9.148;2022-11-13T02:21:37;3.30;;;2.92;;
4827;SDS011;2428;48.732;9.148;2022-11-13T02:24:19;2.00;;;1.88;;
4827;SDS011;2428;48.732;9.148;2022-11-13T02:26:55;1.60;;;1.55;;
4827;SDS011;2428;48.732;9.148;2022-11-13T02:29:25;3.45;;;3.25;;
4827;SDS011;2428;48.732;9.148;2022-11-13T02:31:51;2.47;;;1.97;;
4827;SDS011;2428;48.732;9.148;2022-11-13T02:34:16;6.13;;;1.83;;
4827;SDS011;2428;48.732;9.148;2022-11-13T02:36:42;2.53;;;2.40;;
4827;SDS011;2428;48.732;9.148;2022-11-13T02:39:08;1.60;;;1.50;;
4827;SDS011;2428;48.732;9.148;2022-11-13T02:41:35;3.03;;;2.70;;
4827;SDS011;2428;48.732;9.148;2022-11-13T02:44:02;2.10;;;1.90;;
4827;SDS011;2428;48.732;9.148;2022-11-13T02:46:29;1.80;;;1.70;;
4827;SDS011;2428;48.732;9.148;2022-11-13T02:48:54;2.17;;;2.07;;
4827;SDS011;2428;48.732;9.148;2022-11-13T02:51:20;1.67;;;1.67;;
4827;SDS011;2428;48.732;9.148;2022-11-13T02:53:46;1.37;;;1.30;;
4827;SDS011;2428;48.732;9.148;2022-11-13T02:56:11;2.97;;;2.70;;
4827;SDS011;2428;48.732;9.148;2022-11-13T02:58:37;1.20;;;1.20;;
4827;SDS011;2428;48.732;9.148;2022-11-13T03:01:02;1.00;;;1.00;;
4827;SDS011;2428;48.732;9.148;2022-11-13T03:03:28;6.80;;;2.80;;
4827;SDS011;2428;48.732;9.148;2022-11-13T03:05:54;3.57;;;1.40;;
4827;SDS011;2428;48.732;9.148;2022-11-13T03:08:20;2.20;;;2.03;;
4827;SDS011;2428;48.732;9.148;2022-11-13T03:10:48;1.50;;;1.45;;
4827;SDS011;2428;48.732;9.148;2022-11-13T03:13:13;2.80;;;2.63;;
4827;SDS011;2428;48.732;9.148;2022-11-13T03:15:39;2.03;;;1.93;;
4827;SDS011;2428;48.732;9.148;2022-11-13T03:18:05;2.90;;;1.90;;
4827;SDS011;2428;48.732;9.148;2022-11-13T03:20:32;6.38;;;2.30;;
4827;SDS011;2428;48.732;9.148;2022-11-13T03:23:00;3.40;;;2.05;;
4827;SDS011;2428;48.732;9.148;2022-11-13T03:25:26;1.60;;;1.50;;
4827;SDS011;2428;48.732;9.148;2022-11-13T03:27:51;4.67;;;1.37;;
4827;SDS011;2428;48.732;9.148;2022-11-13T03:30:17;1.73;;;1.63;;
4827;SDS011;2428;48.732;9.148;2022-11-13T03:32:42;2.60;;;2.50;;
4827;SDS011;2428;48.732;9.148;2022-11-13T03:35:08;1.80;;;1.70;;
4827;SDS011;2428;48.732;9.148;2022-11-13T03:37:34;1.53;;;1.53;;
4827;SDS011;2428;48.732;9.148;2022-11-13T03:39:59;1.23;;;1.23;;
4827;SDS011;2428;48.732;9.148;2022-11-13T03:42:25;1.70;;;1.60;;
4827;SDS011;2428;48.732;9.148;2022-11-13T03:44:50;1.60;;;1.50;;
4827;SDS011;2428;48.732;9.148;2022-11-13T03:47:16;2.00;;;1.90;;
4827;SDS011;2428;48.732;9.148;2022-11-13T03:49:41;1.60;;;1.50;;
4827;SDS011;2428;48.732;9.148;2022-11-13T03:52:07;1.27;;;1.27;;
4827;SDS011;2428;48.732;9.148;2022-11-13T03:54:32;3.57;;;1.57;;
4827;SDS011;2428;48.732;9.148;2022-11-13T03:56:58;1.53;;;1.43;;
4827;SDS011;2428;48.732;9.148;2022-11-13T03:59:23;2.50;;;2.30;;
4827;SDS011;2428;48.732;9.148;2022-11-13T04:01:49;1.50;;;1.40;;
4827;SDS011;2428;48.732;9.148;2022-11-13T04:04:14;1.07;;;1.03;;
4827;SDS011;2428;48.732;9.148;2022-11-13T04:06:40;3.07;;;2.10;;
4827;SDS011;2428;48.732;9.148;2022-11-13T04:09:06;1.63;;;1.23;;
4827;SDS011;2428;48.732;9.148;2022-11-13T04:11:32;2.10;;;2.00;;
4827;SDS011;2428;48.732;9.148;2022-11-13T04:13:57;1.33;;;1.33;;
4827;SDS011;2428;48.732;9.148;2022-11-13T04:16:23;6.70;;;2.40;;
4827;SDS011;2428;48.732;9.148;2022-11-13T04:18:49;2.20;;;1.57;;
4827;SDS011;2428;48.732;9.148;2022-11-13T04:21:15;1.50;;;1.43;;
4827;SDS011;2428;48.732;9.148;2022-11-13T04:23:40;1.83;;;1.83;;
4827;SDS011;2428;48.732;9.148;2022-11-13T04:26:06;1.60;;;1.30;;
4827;SDS011;2428;48.732;9.148;2022-11-13T04:28:32;1.43;;;1.17;;
4827;SDS011;2428;48.732;9.148;2022-11-13T04:30:57;3.83;;;1.40;;
4827;SDS011;2428;48.732;9.148;2022-11-13T04:33:23;3.20;;;3.10;;
4827;SDS011;2428;48.732;9.148;2022-11-13T04:35:48;7.33;;;1.83;;
4827;SDS011;2428;48.732;9.148;2022-11-13T04:38:14;1.43;;;1.43;;
4827;SDS011;2428;48.732;9.148;2022-11-13T04:40:40;2.60;;;1.88;;
4827;SDS011;2428;48.732;9.148;2022-11-13T04:43:06;5.63;;;2.67;;
4827;SDS011;2428;48.732;9.148;2022-11-13T04:45:31;2.10;;;0.77;;
4827;SDS011;2428;48.732;9.148;2022-11-13T04:47:57;2.13;;;2.00;;
4827;SDS011;2428;48.732;9.148;2022-11-13T04:50:23;2.23;;;1.53;;
4827;SDS011;2428;48.732;9.148;2022-11-13T04:52:49;1.30;;;1.20;;
4827;SDS011;2428;48.732;9.148;2022-11-13T04:55:14;2.00;;;1.80;;
4827;SDS011;2428;48.732;9.148;2022-11-13T04:57:40;2.43;;;2.23;;
4827;SDS011;2428;48.732;9.148;2022-11-13T05:00:06;1.20;;;1.10;;
4827;SDS011;2428;48.732;9.148;2022-11-13T05:02:33;1.77;;;1.67;;
4827;SDS011;2428;48.732;9.148;2022-11-13T05:04:59;2.63;;;1.80;;
4827;SDS011;2428;48.732;9.148;2022-11-13T05:07:25;2.72;;;2.63;;
4827;SDS011;2428;48.732;9.148;2022-11-13T05:09:51;3.97;;;2.90;;
4827;SDS011;2428;48.732;9.148;2022-11-13T05:12:17;7.85;;;2.88;;
4827;SDS011;2428;48.732;9.148;2022-11-13T05:14:43;3.13;;;2.63;;
4827;SDS011;2428;48.732;9.148;2022-11-13T05:17:09;3.03;;;1.63;;
4827;SDS011;2428;48.732;9.148;2022-11-13T05:19:35;13.73;;;1.65;;
4827;SDS011;2428;48.732;9.148;2022-11-13T05:22:01;1.30;;;1.30;;
4827;SDS011;2428;48.732;9.148;2022-11-13T05:24:27;0.75;;;0.75;;
4827;SDS011;2428;48.732;9.148;2022-11-13T05:26:53;0.90;;;0.90;;
4827;SDS011;2428;48.732;9.148;2022-11-13T05:29:19;2.20;;;1.97;;
4827;SDS011;2428;48.732;9.148;2022-11-13T05:31:44;3.60;;;1.30;;
4827;SDS011;2428;48.732;9.148;2022-11-13T05:34:10;1.65;;;1.35;;
4827;SDS011;2428;48.732;9.148;2022-11-13T05:36:36;1.40;;;1.30;;
4827;SDS011;2428;48.732;9.148;2022-11-13T05:39:01;3.00;;;1.83;;
4827;SDS011;2428;48.732;9.148;2022-11-13T05:41:27;1.40;;;1.40;;
4827;SDS011;2428;48.732;9.148;2022-11-13T05:43:53;1.37;;;1.37;;
4827;SDS011;2428;48.732;9.148;2022-11-13T05:46:26;1.60;;;1.60;;
4827;SDS011;2428;48.732;9.148;2022-11-13T05:48:56;1.60;;;1.50;;
4827;SDS011;2428;48.732;9.148;2022-11-13T05:51:24;1.20;;;0.85;;
4827;SDS011;2428;48.732;9.148;2022-11-13T05:53:55;2.63;;;2.53;;
4827;SDS011;2428;48.732;9.148;2022-11-13T05:56:22;2.05;;;1.95;;
4827;SDS011;2428;48.732;9.148;2022-11-13T05:58:55;2.13;;;2.00;;
4827;SDS011;2428;48.732;9.148;2022-11-13T06:01:26;0.73;;;0.73;;
4827;SDS011;2428;48.732;9.148;2022-11-13T06:03:56;1.27;;;1.15;;
4827;SDS011;2428;48.732;9.148;2022-11-13T06:06:24;1.13;;;1.02;;
4827;SDS011;2428;48.732;9.148;2022-11-13T06:08:51;1.83;;;1.73;;
4827;SDS011;2428;48.732;9.148;2022-11-13T06:11:19;1.70;;;1.60;;
4827;SDS011;2428;48.732;9.148;2022-11-13T06:13:46;1.02;;;1.02;;
4827;SDS011;2428;48.732;9.148;2022-11-13T06:16:17;1.15;;;1.10;;
4827;SDS011;2428;48.732;9.148;2022-11-13T06:18:45;2.05;;;1.95;;
4827;SDS011;2428;48.732;9.148;2022-11-13T06:21:13;1.33;;;0.85;;
4827;SDS011;2428;48.732;9.148;2022-11-13T06:23:41;2.20;;;2.10;;
4827;SDS011;2428;48.732;9.148;2022-11-13T06:26:26;5.32;;;2.45;;
4827;SDS011;2428;48.732;9.148;2022-11-13T06:28:54;1.40;;;1.35;;
4827;SDS011;2428;48.732;9.148;2022-11-13T06:31:23;1.60;;;1.50;;
4827;SDS011;2428;48.732;9.148;2022-11-13T06:33:51;3.70;;;2.38;;
4827;SDS011;2428;48.732;9.148;2022-11-13T06:36:19;3.10;;;2.90;;
4827;SDS011;2428;48.732;9.148;2022-11-13T06:38:49;4.57;;;2.47;;
4827;SDS011;2428;48.732;9.148;2022-11-13T06:41:16;2.35;;;2.25;;
4827;SDS011;2428;48.732;9.148;2022-11-13T06:43:44;1.60;;;1.55;;
4827;SDS011;2428;48.732;9.148;2022-11-13T06:46:24;5.32;;;2.10;;
4827;SDS011;2428;48.732;9.148;2022-11-13T06:48:51;1.20;;;1.20;;
4827;SDS011;2428;48.732;9.148;2022-11-13T06:51:19;2.10;;;2.05;;
4827;SDS011;2428;48.732;9.148;2022-11-13T06:53:46;1.58;;;1.20;;
4827;SDS011;2428;48.732;9.148;2022-11-13T06:56:13;1.38;;;1.38;;
4827;SDS011;2428;48.732;9.148;2022-11-13T06:58:39;3.80;;;2.60;;
4827;SDS011;2428;48.732;9.148;2022-11-13T07:01:08;2.25;;;1.35;;
4827;SDS011;2428;48.732;9.148;2022-11-13T07:03:36;2.65;;;1.45;;
4827;SDS011;2428;48.732;9.148;2022-11-13T07:06:07;2.88;;;2.25;;
4827;SDS011;2428;48.732;9.148;2022-11-13T07:08:38;1.83;;;1.73;;
4827;SDS011;2428;48.732;9.148;2022-11-13T07:11:04;1.73;;;1.63;;
4827;SDS011;2428;48.732;9.148;2022-11-13T07:13:31;2.05;;;1.00;;
4827;SDS011;2428;48.732;9.148;2022-11-13T07:16:04;4.40;;;3.63;;
4827;SDS011;2428;48.732;9.148;2022-11-13T07:18:31;1.00;;;1.00;;
4827;SDS011;2428;48.732;9.148;2022-11-13T07:20:57;1.40;;;1.30;;
4827;SDS011;2428;48.732;9.148;2022-11-13T07:23:27;2.83;;;2.67;;
4827;SDS011;2428;48.732;9.148;2022-11-13T07:25:52;3.80;;;2.43;;
4827;SDS011;2428;48.732;9.148;2022-11-13T07:28:19;1.52;;;1.52;;
4827;SDS011;2428;48.732;9.148;2022-11-13T07:30:45;1.45;;;0.93;;
4827;SDS011;2428;48.732;9.148;2022-11-13T07:33:11;3.40;;;1.70;;
4827;SDS011;2428;48.732;9.148;2022-11-13T07:35:36;6.30;;;1.77;;
4827;SDS011;2428;48.732;9.148;2022-11-13T07:38:02;2.10;;;1.70;;
4827;SDS011;2428;48.732;9.148;2022-11-13T07:40:27;2.23;;;2.00;;
4827;SDS011;2428;48.732;9.148;2022-11-13T07:43:00;2.10;;;1.90;;
4827;SDS011;2428;48.732;9.148;2022-11-13T07:45:26;2.05;;;1.35;;
4827;SDS011;2428;48.732;9.148;2022-11-13T07:47:59;1.65;;;1.55;;
4827;SDS011;2428;48.732;9.148;2022-11-13T07:50:26;2.58;;;1.83;;
4827;SDS011;2428;48.732;9.148;2022-11-13T07:52:59;1.75;;;1.65;;
4827;SDS011;2428;48.732;9.148;2022-11-13T07:55:27;1.92;;;1.83;;
4827;SDS011;2428;48.732;9.148;2022-11-13T07:57:56;2.73;;;2.53;;
4827;SDS011;2428;48.732;9.148;2022-11-13T08:00:23;1.60;;;1.17;;
4827;SDS011;2428;48.732;9.148;2022-11-13T08:02:49;2.70;;;1.80;;
4827;SDS011;2428;48.732;9.148;2022-11-13T08:05:15;1.37;;;1.27;;
4827;SDS011;2428;48.732;9.148;2022-11-13T08:07:41;1.67;;;1.38;;
4827;SDS011;2428;48.732;9.148;2022-11-13T08:10:07;2.80;;;1.90;;
4827;SDS011;2428;48.732;9.148;2022-11-13T08:12:33;1.60;;;1.35;;
4827;SDS011;2428;48.732;9.148;2022-11-13T08:14:59;1.43;;;1.43;;
4827;SDS011;2428;48.732;9.148;2022-11-13T08:17:24;1.37;;;1.30;;
4827;SDS011;2428;48.732;9.148;2022-11-13T08:19:50;3.23;;;1.70;;
4827;SDS011;2428;48.732;9.148;2022-11-13T08:22:15;2.30;;;2.20;;
4827;SDS011;2428;48.732;9.148;2022-11-13T08:24:41;3.60;;;3.17;;
4827;SDS011;2428;48.732;9.148;2022-11-13T08:27:07;1.33;;;1.23;;
4827;SDS011;2428;48.732;9.148;2022-11-13T08:29:32;2.13;;;1.93;;
4827;SDS011;2428;48.732;9.148;2022-11-13T08:32:01;1.83;;;1.83;;
4827;SDS011;2428;48.732;9.148;2022-11-13T08:34:27;2.03;;;1.90;;
4827;SDS011;2428;48.732;9.148;2022-11-13T08:36:53;2.73;;;2.20;;
4827;SDS011;2428;48.732;9.148;2022-11-13T08:39:18;2.93;;;2.73;;
4827;SDS011;2428;48.732;9.148;2022-11-13T08:41:44;4.80;;;1.93;;
4827;SDS011;2428;48.732;9.148;2022-11-13T08:44:09;4.27;;;2.97;;
4827;SDS011;2428;48.732;9.148;2022-11-13T08:46:36;2.63;;;2.47;;
4827;SDS011;2428;48.732;9.148;2022-11-13T08:49:02;2.80;;;2.70;;
4827;SDS011;2428;48.732;9.148;2022-11-13T08:51:28;2.55;;;2.30;;
4827;SDS011;2428;48.732;9.148;2022-11-13T08:53:53;1.83;;;1.73;;
4827;SDS011;2428;48.732;9.148;2022-11-13T08:56:19;2.73;;;2.53;;
4827;SDS011;2428;48.732;9.148;2022-11-13T08:58:45;4.20;;;3.37;;
4827;SDS011;2428;48.732;9.148;2022-11-13T09:01:10;5.53;;;2.97;;
4827;SDS011;2428;48.732;9.148;2022-11-13T09:03:36;3.23;;;2.90;;
4827;SDS011;2428;48.732;9.148;2022-11-13T09:06:07;4.00;;;3.60;;
4827;SDS011;2428;48.732;9.148;2022-11-13T09:08:33;3.20;;;2.57;;
4827;SDS011;2428;48.732;9.148;2022-11-13T09:11:05;3.80;;;3.50;;
4827;SDS011;2428;48.732;9.148;2022-11-13T09:13:32;3.17;;;2.97;;
4827;SDS011;2428;48.732;9.148;2022-11-13T09:15:59;3.60;;;3.30;;
4827;SDS011;2428;48.732;9.148;2022-11-13T09:18:25;3.90;;;2.80;;
4827;SDS011;2428;48.732;9.148;2022-11-13T09:20:51;4.63;;;3.73;;
4827;SDS011;2428;48.732;9.148;2022-11-13T09:23:17;4.73;;;4.20;;
4827;SDS011;2428;48.732;9.148;2022-11-13T09:25:42;7.47;;;4.20;;
4827;SDS011;2428;48.732;9.148;2022-11-13T09:28:08;5.47;;;4.87;;
4827;SDS011;2428;48.732;9.148;2022-11-13T09:30:35;5.60;;;4.40;;
4827;SDS011;2428;48.732;9.148;2022-11-13T09:33:02;6.70;;;4.47;;
4827;SDS011;2428;48.732;9.148;2022-11-13T09:35:28;5.13;;;4.63;;
4827;SDS011;2428;48.732;9.148;2022-11-13T09:38:02;6.10;;;4.20;;
4827;SDS011;2428;48.732;9.148;2022-11-13T09:40:33;4.90;;;4.40;;
4827;SDS011;2428;48.732;9.148;2022-11-13T09:43:03;5.30;;;4.80;;
4827;SDS011;2428;48.732;9.148;2022-11-13T09:45:31;5.17;;;4.67;;
4827;SDS011;2428;48.732;9.148;2022-11-13T09:48:02;6.07;;;5.47;;
4827;SDS011;2428;48.732;9.148;2022-11-13T09:50:40;4.97;;;4.00;;
4827;SDS011;2428;48.732;9.148;2022-11-13T09:53:07;4.00;;;3.57;;
4827;SDS011;2428;48.732;9.148;2022-11-13T09:55:37;3.97;;;3.67;;
4827;SDS011;2428;48.732;9.148;2022-11-13T09:58:11;3.40;;;3.10;;
4827;SDS011;2428;48.732;9.148;2022-11-13T10:00:48;3.20;;;2.90;;
4827;SDS011;2428;48.732;9.148;2022-11-13T10:03:31;2.93;;;2.77;;
4827;SDS011;2428;48.732;9.148;2022-11-13T10:06:15;2.55;;;2.35;;
4827;SDS011;2428;48.732;9.148;2022-11-13T10:09:18;3.25;;;3.05;;
4827;SDS011;2428;48.732;9.148;2022-11-13T10:11:51;3.00;;;2.70;;
4827;SDS011;2428;48.732;9.148;2022-11-13T10:14:30;3.60;;;3.30;;
4827;SDS011;2428;48.732;9.148;2022-11-13T10:17:32;5.15;;;2.78;;
4827;SDS011;2428;48.732;9.148;2022-11-13T10:20:20;3.75;;;3.08;;
4827;SDS011;2428;48.732;9.148;2022-11-13T10:22:53;2.85;;;2.58;;
4827;SDS011;2428;48.732;9.148;2022-11-13T10:25:24;4.13;;;3.30;;
4827;SDS011;2428;48.732;9.148;2022-11-13T10:27:56;2.97;;;2.78;;
4827;SDS011;2428;48.732;9.148;2022-11-13T10:30:24;2.65;;;2.45;;
4827;SDS011;2428;48.732;9.148;2022-11-13T10:32:50;3.13;;;2.75;;
4827;SDS011;2428;48.732;9.148;2022-11-13T10:35:22;2.38;;;2.28;;
4827;SDS011;2428;48.732;9.148;2022-11-13T10:40:40;3.67;;;1.90;;
4827;SDS011;2428;48.732;9.148;2022-11-13T10:43:12;3.25;;;2.65;;
4827;SDS011;2428;48.732;9.148;2022-11-13T10:45:39;4.32;;;3.03;;
4827;SDS011;2428;48.732;9.148;2022-11-13T10:48:17;2.42;;;2.22;;
4827;SDS011;2428;48.732;9.148;2022-11-13T10:50:50;3.67;;;2.63;;
4827;SDS011;2428;48.732;9.148;2022-11-13T10:53:21;2.63;;;2.42;;
4827;SDS011;2428;48.732;9.148;2022-11-13T10:55:52;1.88;;;1.60;;
4827;SDS011;2428;48.732;9.148;2022-11-13T10:58:21;5.57;;;2.88;;
4827;SDS011;2428;48.732;9.148;2022-11-13T11:00:47;4.00;;;2.93;;
4827;SDS011;2428;48.732;9.148;2022-11-13T11:05:50;2.60;;;2.38;;
4827;SDS011;2428;48.732;9.148;2022-11-13T11:08:30;3.88;;;3.58;;
4827;SDS011;2428;48.732;9.148;2022-11-13T11:10:59;3.08;;;2.72;;
4827;SDS011;2428;48.732;9.148;2022-11-13T11:16:43;5.57;;;2.45;;
4827;SDS011;2428;48.732;9.148;2022-11-13T11:19:11;2.42;;;1.80;;
4827;SDS011;2428;48.732;9.148;2022-11-13T11:21:39;2.60;;;2.40;;
4827;SDS011;2428;48.732;9.148;2022-11-13T11:24:15;2.25;;;2.15;;
4827;SDS011;2428;48.732;9.148;2022-11-13T11:26:46;2.72;;;1.80;;
4827;SDS011;2428;48.732;9.148;2022-11-13T11:34:34;2.72;;;2.22;;
4827;SDS011;2428;48.732;9.148;2022-11-13T11:39:49;2.63;;;2.17;;
4827;SDS011;2428;48.732;9.148;2022-11-13T11:45:24;2.20;;;2.05;;
4827;SDS011;2428;48.732;9.148;2022-11-13T11:47:54;2.42;;;2.20;;
4827;SDS011;2428;48.732;9.148;2022-11-13T11:50:43;3.03;;;2.77;;
4827;SDS011;2428;48.732;9.148;2022-11-13T11:59:13;2.83;;;2.63;;
4827;SDS011;2428;48.732;9.148;2022-11-13T12:09:53;1.63;;;1.53;;
4827;SDS011;2428;48.732;9.148;2022-11-13T12:31:38;3.33;;;2.57;;
4827;SDS011;2428;48.732;9.148;2022-11-13T12:37:10;2.63;;;2.43;;
4827;SDS011;2428;48.732;9.148;2022-11-13T12:47:16;2.67;;;1.87;;
4827;SDS011;2428;48.732;9.148;2022-11-13T12:49:42;2.43;;;2.17;;
4827;SDS011;2428;48.732;9.148;2022-11-13T12:52:18;4.17;;;2.20;;
4827;SDS011;2428;48.732;9.148;2022-11-13T12:54:46;3.60;;;3.00;;
4827;SDS011;2428;48.732;9.148;2022-11-13T12:59:41;3.27;;;2.93;;
4827;SDS011;2428;48.732;9.148;2022-11-13T13:05:14;3.50;;;3.20;;
4827;SDS011;2428;48.732;9.148;2022-11-13T13:16:24;3.97;;;3.53;;
4827;SDS011;2428;48.732;9.148;2022-11-13T13:18:52;7.63;;;3.07;;
4827;SDS011;2428;48.732;9.148;2022-11-13T13:21:37;2.97;;;2.60;;
4827;SDS011;2428;48.732;9.148;2022-11-13T13:24:06;3.47;;;3.27;;
4827;SDS011;2428;48.732;9.148;2022-11-13T13:26:53;5.70;;;3.77;;
4827;SDS011;2428;48.732;9.148;2022-11-13T13:29:28;7.27;;;3.20;;
4827;SDS011;2428;48.732;9.148;2022-11-13T13:35:16;4.60;;;3.30;;
4827;SDS011;2428;48.732;9.148;2022-11-13T13:48:23;2.80;;;2.60;;
4827;SDS011;2428;48.732;9.148;2022-11-13T13:50:50;4.70;;;4.27;;
4827;SDS011;2428;48.732;9.148;2022-11-13T13:53:19;3.90;;;3.40;;
4827;SDS011;2428;48.732;9.148;2022-11-13T13:55:49;4.10;;;2.27;;
4827;SDS011;2428;48.732;9.148;2022-11-13T13:58:19;2.60;;;2.40;;
4827;SDS011;2428;48.732;9.148;2022-11-13T14:00:59;3.33;;;2.90;;
4827;SDS011;2428;48.732;9.148;2022-11-13T14:03:27;5.33;;;2.60;;
4827;SDS011;2428;48.732;9.148;2022-11-13T14:06:06;3.90;;;3.50;;
4827;SDS011;2428;48.732;9.148;2022-11-13T14:08:52;4.13;;;2.87;;
4827;SDS011;2428;48.732;9.148;2022-11-13T14:11:24;3.37;;;3.07;;
4827;SDS011;2428;48.732;9.148;2022-11-13T14:13:53;4.10;;;3.30;;
4827;SDS011;2428;48.732;9.148;2022-11-13T14:16:19;4.90;;;3.63;;
4827;SDS011;2428;48.732;9.148;2022-11-13T14:18:45;3.83;;;3.20;;
4827;SDS011;2428;48.732;9.148;2022-11-13T14:21:14;6.40;;;4.10;;
4827;SDS011;2428;48.732;9.148;2022-11-13T14:23:48;4.77;;;3.30;;
4827;SDS011;2428;48.732;9.148;2022-11-13T14:26:16;3.20;;;2.70;;
4827;SDS011;2428;48.732;9.148;2022-11-13T14:28:45;6.43;;;3.30;;
4827;SDS011;2428;48.732;9.148;2022-11-13T14:31:26;3.27;;;3.07;;
4827;SDS011;2428;48.732;9.148;2022-11-13T14:33:56;4.83;;;3.47;;
4827;SDS011;2428;48.732;9.148;2022-11-13T14:36:28;3.80;;;3.40;;
4827;SDS011;2428;48.732;9.148;2022-11-13T14:38:56;8.20;;;3.47;;
4827;SDS011;2428;48.732;9.148;2022-11-13T14:41:26;1.67;;;1.58;;
4827;SDS011;2428;48.732;9.148;2022-11-13T14:43:59;4.88;;;3.83;;
4827;SDS011;2428;48.732;9.148;2022-11-13T14:49:01;3.37;;;3.17;;
4827;SDS011;2428;48.732;9.148;2022-11-13T14:51:28;3.13;;;2.70;;
4827;SDS011;2428;48.732;9.148;2022-11-13T14:54:02;3.92;;;3.15;;
4827;SDS011;2428;48.732;9.148;2022-11-13T14:56:31;3.73;;;3.53;;
4827;SDS011;2428;48.732;9.148;2022-11-13T14:59:06;2.45;;;2.25;;
4827;SDS011;2428;48.732;9.148;2022-11-13T15:01:32;4.75;;;3.30;;
4827;SDS011;2428;48.732;9.148;2022-11-13T15:03:58;3.65;;;3.17;;
4827;SDS011;2428;48.732;9.148;2022-11-13T15:06:25;4.70;;;3.60;;
4827;SDS011;2428;48.732;9.148;2022-11-13T15:08:57;4.70;;;3.53;;
4827;SDS011;2428;48.732;9.148;2022-11-13T15:11:23;3.30;;;2.83;;
4827;SDS011;2428;48.732;9.148;2022-11-13T15:13:50;3.83;;;3.42;;
4827;SDS011;2428;48.732;9.148;2022-11-13T15:16:16;3.60;;;2.63;;
4827;SDS011;2428;48.732;9.148;2022-11-13T15:18:46;5.72;;;4.18;;
4827;SDS011;2428;48.732;9.148;2022-11-13T15:21:13;3.20;;;2.90;;
4827;SDS011;2428;48.732;9.148;2022-11-13T15:23:39;5.30;;;3.03;;
4827;SDS011;2428;48.732;9.148;2022-11-13T15:26:05;4.03;;;3.30;;
4827;SDS011;2428;48.732;9.148;2022-11-13T15:28:30;3.50;;;3.20;;
4827;SDS011;2428;48.732;9.148;2022-11-13T15:30:56;3.10;;;2.87;;
4827;SDS011;2428;48.732;9.148;2022-11-13T15:33:22;3.95;;;2.97;;
4827;SDS011;2428;48.732;9.148;2022-11-13T15:35:48;3.50;;;3.00;;
4827;SDS011;2428;48.732;9.148;2022-11-13T15:38:13;2.90;;;2.60;;
4827;SDS011;2428;48.732;9.148;2022-11-13T15:40:39;3.53;;;2.13;;
4827;SDS011;2428;48.732;9.148;2022-11-13T15:43:05;3.43;;;3.13;;
4827;SDS011;2428;48.732;9.148;2022-11-13T15:45:36;2.85;;;2.65;;
4827;SDS011;2428;48.732;9.148;2022-11-13T15:48:01;4.00;;;3.30;;
4827;SDS011;2428;48.732;9.148;2022-11-13T15:50:27;4.70;;;4.30;;
4827;SDS011;2428;48.732;9.148;2022-11-13T15:52:52;4.93;;;3.83;;
4827;SDS011;2428;48.732;9.148;2022-11-13T15:57:44;3.23;;;2.87;;
4827;SDS011;2428;48.732;9.148;2022-11-13T16:00:17;5.60;;;4.17;;
4827;SDS011;2428;48.732;9.148;2022-11-13T16:02:45;4.85;;;3.70;;
4827;SDS011;2428;48.732;9.148;2022-11-13T16:05:14;5.85;;;3.10;;
4827;SDS011;2428;48.732;9.148;2022-11-13T16:07:40;3.40;;;3.03;;
4827;SDS011;2428;48.732;9.148;2022-11-13T16:10:07;3.40;;;3.20;;
4827;SDS011;2428;48.732;9.148;2022-11-13T16:12:34;3.15;;;2.95;;
4827;SDS011;2428;48.732;9.148;2022-11-13T16:15:00;5.33;;;4.47;;
4827;SDS011;2428;48.732;9.148;2022-11-13T16:17:25;6.97;;;4.90;;
4827;SDS011;2428;48.732;9.148;2022-11-13T16:19:51;6.03;;;4.57;;
4827;SDS011;2428;48.732;9.148;2022-11-13T16:22:23;4.63;;;4.25;;
4827;SDS011;2428;48.732;9.148;2022-11-13T16:24:50;4.45;;;3.60;;
4827;SDS011;2428;48.732;9.148;2022-11-13T16:27:23;3.37;;;3.17;;
4827;SDS011;2428;48.732;9.148;2022-11-13T16:29:51;4.13;;;3.65;;
4827;SDS011;2428;48.732;9.148;2022-11-13T16:32:16;4.47;;;3.43;;
4827;SDS011;2428;48.732;9.148;2022-11-13T16:34:42;4.00;;;3.70;;
4827;SDS011;2428;48.732;9.148;2022-11-13T16:37:12;5.32;;;3.80;;
4827;SDS011;2428;48.732;9.148;2022-11-13T16:39:43;4.72;;;3.08;;
4827;SDS011;2428;48.732;9.148;2022-11-13T16:42:09;2.67;;;2.47;;
4827;SDS011;2428;48.732;9.148;2022-11-13T16:44:36;5.50;;;3.90;;
4827;SDS011;2428;48.732;9.148;2022-11-13T16:47:02;5.50;;;3.73;;
4827;SDS011;2428;48.732;9.148;2022-11-13T16:49:29;3.38;;;2.95;;
4827;SDS011;2428;48.732;9.148;2022-11-13T16:51:54;5.23;;;3.57;;
4827;SDS011;2428;48.732;9.148;2022-11-13T16:54:20;4.37;;;4.13;;
4827;SDS011;2428;48.732;9.148;2022-11-13T16:56:45;2.90;;;2.40;;
4827;SDS011;2428;48.732;9.148;2022-11-13T16:59:11;7.40;;;4.97;;
4827;SDS011;2428;48.732;9.148;2022-11-13T17:01:37;4.77;;;4.43;;